Time,TemperatureF,DewpointF,PressureIn,WindDirection,WindDirectionDegrees,WindSpeedMPH,WindSpeedGustMPH,Humidity,HourlyPrecipIn,Conditions,Clouds,dailyrainin,SoftwareType,DateUTC
2013-04-03 00:04:00,44.1,34.2,30.03,North,-999,0.0,0.0,68,0.00,,,-99.99,FreeWX-Wi 1.02,2013-04-03 07:04:00,
2013-04-03 00:09:00,43.7,33.8,30.03,North,-999,0.0,0.0,68,0.00,,,-99.99,FreeWX-Wi 1.02,2013-04-03 07:09:00,
2013-04-03 00:14:00,43.5,33.6,30.03,North,-999,0.0,0.0,68,0.00,,,-99.99,FreeWX-Wi 1.02,2013-04-03 07:14:00,
2013-04-03 00:20:00,43.9,34.7,30.03,North,-999,0.0,0.0,70,0.00,,,-99.99,FreeWX-Wi 1.02,2013-04-03 07:20:00,
2013-04-03 00:25:00,43.7,34.2,30.03,North,-999,0.0,0.0,69,0.00,,,-99.99,FreeWX-Wi 1.02,2013-04-03 07:25:00,
2013-04-03 00:30:00,43.5,34.0,30.03,North,-999,0.0,0.0,69,0.00,,,-99.99,FreeWX-Wi 1.02,2013-04-03 07:30:00,
2013-04-03 00:35:00,43.5,34.3,30.03,North,-999,0.0,0.0,70,0.00,,,-99.99,FreeWX-Wi 1.02,2013-04-03 07:35:00,
2013-04-03 00:40:00,43.7,34.9,30.03,North,-999,0.0,0.0,71,0.00,,,-99.99,FreeWX-Wi 1.02,2013-04-03 07:40:00,
2013-04-03 00:46:00,44.1,35.6,30.03,North,-999,0.0,0.0,72,0.00,,,-99.99,FreeWX-Wi 1.02,2013-04-03 07:46:00,
2013-04-03 00:51:00,43.9,35.4,30.03,North,-999,0.0,0.0,72,0.00,,,-99.99,FreeWX-Wi 1.02,2013-04-03 07:51:00,
2013-04-03 01:01:00,43.7,35.2,30.03,North,-999,0.0,0.0,72,0.00,,,-99.99,FreeWX-Wi 1.02,2013-04-03 08:01:00,
2013-04-03 01:07:00,43.7,35.6,30.03,North,-999,0.0,0.0,73,0.00,,,-99.99,FreeWX-Wi 1.02,2013-04-03 08:07:00,
2013-04-03 01:12:00,43.5,35.4,30.03,North,-999,0.0,0.0,73,0.00,,,-99.99,FreeWX-Wi 1.02,2013-04-03 08:12:00,
2013-04-03 01:17:00,43.5,35.4,30.03,North,-999,0.0,0.0,73,0.00,,,-99.99,FreeWX-Wi 1.02,2013-04-03 08:17:00,
2013-04-03 01:22:00,43.5,35.8,30.03,North,-999,0.0,0.0,74,0.00,,,-99.99,FreeWX-Wi 1.02,2013-04-03 08:22:00,
2013-04-03 01:27:00,43.7,36.3,30.03,North,-999,0.0,0.0,75,0.00,,,-99.99,FreeWX-Wi 1.02,2013-04-03 08:27:00,
2013-04-03 01:32:00,44.4,37.6,30.03,North,-999,0.0,3.1,77,0.00,,,-99.99,FreeWX-Wi 1.02,2013-04-03 08:32:00,
2013-04-03 01:37:00,44.8,37.9,30.03,North,-999,0.0,0.0,77,0.00,,,-99.99,FreeWX-Wi 1.02,2013-04-03 08:37:00,
2013-04-03 01:42:00,45.3,38.8,30.06,North,-999,0.0,0.0,78,0.00,,,-99.99,FreeWX-Wi 1.02,2013-04-03 08:42:00,
2013-04-03 01:47:00,45.5,39.0,30.06,North,-999,0.0,0.0,78,0.00,,,-99.99,FreeWX-Wi 1.02,2013-04-03 08:47:00,
2013-04-03 01:53:00,45.5,39.0,30.06,North,-999,0.0,0.0,78,0.00,,,-99.99,FreeWX-Wi 1.02,2013-04-03 08:53:00,
2013-04-03 01:58:00,45.7,39.2,30.03,North,-999,0.0,0.0,78,0.00,,,-99.99,FreeWX-Wi 1.02,2013-04-03 08:58:00,
2013-04-03 02:03:00,45.9,39.7,30.03,North,-999,0.0,0.0,79,0.00,,,-99.99,FreeWX-Wi 1.02,2013-04-03 09:03:00,
2013-04-03 02:08:00,46.0,39.9,30.03,North,-999,0.0,3.1,79,0.00,,,-99.99,FreeWX-Wi 1.02,2013-04-03 09:08:00,
2013-04-03 02:13:00,45.9,39.7,30.03,North,-999,0.0,0.0,79,0.00,,,-99.99,FreeWX-Wi 1.02,2013-04-03 09:13:00,
2013-04-03 02:18:00,45.9,39.7,30.03,North,-999,0.0,0.0,79,0.00,,,-99.99,FreeWX-Wi 1.02,2013-04-03 09:18:00,
2013-04-03 02:23:00,45.9,39.7,30.03,North,-999,0.0,0.0,79,0.00,,,-99.99,FreeWX-Wi 1.02,2013-04-03 09:23:00,
2013-04-03 02:28:00,45.9,39.7,30.03,North,-999,0.0,0.0,79,0.00,,,-99.99,FreeWX-Wi 1.02,2013-04-03 09:28:00,
2013-04-03 02:33:00,45.7,39.6,30.03,North,-999,0.0,0.0,79,0.00,,,-99.99,FreeWX-Wi 1.02,2013-04-03 09:33:00,
2013-04-03 02:38:00,45.5,39.4,30.03,North,-999,0.0,0.0,79,0.00,,,-99.99,FreeWX-Wi 1.02,2013-04-03 09:38:00,
2013-04-03 02:44:00,45.1,39.0,30.03,North,-999,0.0,0.0,79,0.00,,,-99.99,FreeWX-Wi 1.02,2013-04-03 09:44:00,
2013-04-03 02:49:00,45.0,38.8,30.03,North,-999,0.0,0.0,79,0.00,,,-99.99,FreeWX-Wi 1.02,2013-04-03 09:49:00,
2013-04-03 02:54:00,44.6,38.5,30.03,North,-999,0.0,0.0,79,0.00,,,-99.99,FreeWX-Wi 1.02,2013-04-03 09:54:00,
2013-04-03 02:59:00,44.2,38.1,30.03,North,-999,0.0,0.0,79,0.00,,,-99.99,FreeWX-Wi 1.02,2013-04-03 09:59:00,
2013-04-03 03:04:00,44.2,38.5,30.03,North,-999,0.0,0.0,80,0.00,,,-99.99,FreeWX-Wi 1.02,2013-04-03 10:04:00,
2013-04-03 03:09:00,44.4,38.7,30.03,North,-999,0.0,0.0,80,0.00,,,-99.99,FreeWX-Wi 1.02,2013-04-03 10:09:00,
2013-04-03 03:14:00,44.6,38.8,30.03,North,-999,0.0,0.0,80,0.00,,,-99.99,FreeWX-Wi 1.02,2013-04-03 10:14:00,
2013-04-03 03:19:00,44.6,38.8,30.03,North,-999,0.0,0.0,80,0.00,,,-99.99,FreeWX-Wi 1.02,2013-04-03 10:19:00,
2013-04-03 03:25:00,44.6,39.2,30.03,North,-999,0.0,0.0,81,0.00,,,-99.99,FreeWX-Wi 1.02,2013-04-03 10:25:00,
2013-04-03 03:30:00,44.8,39.4,30.03,North,-999,0.0,0.0,81,0.00,,,-99.99,FreeWX-Wi 1.02,2013-04-03 10:30:00,
2013-04-03 03:35:00,44.8,39.4,30.03,North,-999,0.0,0.0,81,0.00,,,-99.99,FreeWX-Wi 1.02,2013-04-03 10:35:00,
2013-04-03 03:40:00,45.0,39.6,30.03,North,-999,0.0,0.0,81,0.00,,,-99.99,FreeWX-Wi 1.02,2013-04-03 10:40:00,
2013-04-03 03:45:00,45.0,39.6,30.03,North,-999,0.0,0.0,81,0.00,,,-99.99,FreeWX-Wi 1.02,2013-04-03 10:45:00,
2013-04-03 03:50:00,44.8,39.4,30.03,North,-999,0.0,0.0,81,0.00,,,-99.99,FreeWX-Wi 1.02,2013-04-03 10:50:00,
2013-04-03 03:55:00,44.8,39.4,30.03,North,-999,0.0,0.0,81,0.00,,,-99.99,FreeWX-Wi 1.02,2013-04-03 10:55:00,
2013-04-03 04:01:00,45.0,39.6,30.03,North,-999,0.0,0.0,81,0.00,,,-99.99,FreeWX-Wi 1.02,2013-04-03 11:01:00,
2013-04-03 04:06:00,45.3,40.1,30.03,North,-999,0.0,0.0,82,0.00,,,-99.99,FreeWX-Wi 1.02,2013-04-03 11:06:00,
2013-04-03 04:11:00,45.5,40.3,30.03,North,-999,0.0,0.0,82,0.00,,,-99.99,FreeWX-Wi 1.02,2013-04-03 11:11:00,
2013-04-03 04:21:00,45.5,40.3,30.03,North,-999,0.0,0.0,82,0.00,,,-99.99,FreeWX-Wi 1.02,2013-04-03 11:21:00,
2013-04-03 04:26:00,45.7,40.5,30.03,North,-999,0.0,0.0,82,0.00,,,-99.99,FreeWX-Wi 1.02,2013-04-03 11:26:00,
2013-04-03 04:32:00,45.7,40.5,30.03,North,-999,0.0,0.0,82,0.00,,,-99.99,FreeWX-Wi 1.02,2013-04-03 11:32:00,
2013-04-03 04:37:00,45.9,41.0,30.03,North,-999,0.0,0.0,83,0.00,,,-99.99,FreeWX-Wi 1.02,2013-04-03 11:37:00,
2013-04-03 04:42:00,45.9,41.0,30.03,North,-999,0.0,0.0,83,0.00,,,-99.99,FreeWX-Wi 1.02,2013-04-03 11:42:00,
2013-04-03 04:47:00,45.9,41.0,30.03,North,-999,0.0,0.0,83,0.00,,,-99.99,FreeWX-Wi 1.02,2013-04-03 11:47:00,
2013-04-03 04:52:00,45.9,41.0,30.03,North,-999,0.0,0.0,83,0.00,,,-99.99,FreeWX-Wi 1.02,2013-04-03 11:52:00,
2013-04-03 04:57:00,45.5,40.6,30.03,North,-999,0.0,3.6,83,0.00,,,-99.99,FreeWX-Wi 1.02,2013-04-03 11:57:00,
2013-04-03 05:02:00,45.7,40.8,30.03,North,-999,0.0,2.7,83,0.00,,,-99.99,FreeWX-Wi 1.02,2013-04-03 12:02:00,
2013-04-03 05:08:00,45.5,40.6,30.03,North,-999,0.0,0.0,83,0.00,,,-99.99,FreeWX-Wi 1.02,2013-04-03 12:08:00,
2013-04-03 05:13:00,45.3,40.5,30.03,North,-999,0.0,0.0,83,0.00,,,-99.99,FreeWX-Wi 1.02,2013-04-03 12:13:00,
2013-04-03 05:18:00,45.5,40.6,30.03,North,-999,0.0,0.0,83,0.00,,,-99.99,FreeWX-Wi 1.02,2013-04-03 12:18:00,
2013-04-03 05:23:00,45.3,40.5,30.03,North,-999,0.0,0.0,83,0.00,,,-99.99,FreeWX-Wi 1.02,2013-04-03 12:23:00,
2013-04-03 05:28:00,45.3,40.5,30.03,North,-999,0.0,0.0,83,0.00,,,-99.99,FreeWX-Wi 1.02,2013-04-03 12:28:00,
2013-04-03 05:33:00,45.3,40.5,30.03,North,-999,0.0,0.0,83,0.00,,,-99.99,FreeWX-Wi 1.02,2013-04-03 12:33:00,
2013-04-03 05:38:00,45.3,40.5,30.03,North,-999,0.0,0.0,83,0.00,,,-99.99,FreeWX-Wi 1.02,2013-04-03 12:38:00,
2013-04-03 05:43:00,45.5,40.6,30.03,North,-999,0.0,0.0,83,0.00,,,-99.99,FreeWX-Wi 1.02,2013-04-03 12:43:00,
2013-04-03 05:57:00,45.5,41.0,30.03,North,-999,0.0,0.0,84,0.00,,,-99.99,FreeWX-Wi 1.02,2013-04-03 12:57:00,
2013-04-03 06:02:00,45.5,41.0,30.03,North,-999,0.0,0.0,84,0.00,,,-99.99,FreeWX-Wi 1.02,2013-04-03 13:02:00,
2013-04-03 06:07:00,45.5,41.0,30.03,North,-999,0.0,0.0,84,0.00,,,-99.99,FreeWX-Wi 1.02,2013-04-03 13:07:00,
2013-04-03 06:13:00,45.7,41.2,30.03,North,-999,0.0,0.0,84,0.00,,,-99.99,FreeWX-Wi 1.02,2013-04-03 13:13:00,
2013-04-03 06:18:00,45.7,41.2,30.03,North,-999,0.0,0.0,84,0.00,,,-99.99,FreeWX-Wi 1.02,2013-04-03 13:18:00,
2013-04-03 06:23:00,45.9,41.4,30.03,North,-999,0.0,0.0,84,0.00,,,-99.99,FreeWX-Wi 1.02,2013-04-03 13:23:00,
2013-04-03 06:28:00,45.9,41.4,30.03,North,-999,0.0,0.0,84,0.00,,,-99.99,FreeWX-Wi 1.02,2013-04-03 13:28:00,
2013-04-03 06:33:00,46.0,41.5,30.03,North,-999,0.0,0.0,84,0.00,,,-99.99,FreeWX-Wi 1.02,2013-04-03 13:33:00,
2013-04-03 06:38:00,46.2,41.7,30.03,North,-999,0.0,0.0,84,0.00,,,-99.99,FreeWX-Wi 1.02,2013-04-03 13:38:00,
2013-04-03 06:43:00,46.2,41.7,30.03,North,-999,0.0,0.0,84,0.00,,,-99.99,FreeWX-Wi 1.02,2013-04-03 13:43:00,
2013-04-03 06:48:00,46.4,41.9,30.03,North,-999,0.0,0.0,84,0.00,,,-99.99,FreeWX-Wi 1.02,2013-04-03 13:48:00,
2013-04-03 06:53:00,46.4,41.9,30.03,North,-999,0.0,0.0,84,0.00,,,-99.99,FreeWX-Wi 1.02,2013-04-03 13:53:00,
2013-04-03 06:58:00,46.4,41.9,30.03,North,-999,0.0,0.0,84,0.00,,,-99.99,FreeWX-Wi 1.02,2013-04-03 13:58:00,
2013-04-03 07:04:00,46.2,41.7,30.03,North,-999,0.0,0.0,84,0.00,,,-99.99,FreeWX-Wi 1.02,2013-04-03 14:04:00,
2013-04-03 07:09:00,0.0,41.7,-100.00,North,-999,0.0,0.0,84,0.00,,,-99.99,FreeWX-Wi 1.02,2013-04-03 14:09:00,
2013-04-03 07:31:00,46.9,42.4,30.03,North,-999,0.0,0.0,84,0.00,,,-99.99,FreeWX-Wi 1.02,2013-04-03 14:31:00,
2013-04-03 07:40:00,0.0,42.6,-100.00,North,-999,0.0,0.0,84,0.00,,,-99.99,FreeWX-Wi 1.02,2013-04-03 14:40:00,
2013-04-03 07:47:00,0.0,42.6,-100.00,North,-999,0.0,0.0,84,0.00,,,-99.99,FreeWX-Wi 1.02,2013-04-03 14:47:00,